Time;durP1;ratioP1;P1;durP2;ratioP2;P2;SDS_P1;SDS_P2;PMS_P1;PMS_P2;Temp;Humidity;BMP_temperature;BMP_pressure;BME280_temperature;BME280_humidity;BME280_pressure;Samples;Min_cycle;Max_cycle;Signal;HPM_P1;HPM_P2
2021/09/23 00:04:43;;;;;;;29.00;22.15;;;;;;;14.20;82.91;101910.88;10149265;28;20423;-70
2021/09/23 00:09:40;;;;;;;35.03;22.77;;;;;;;14.22;83.02;101886.63;10147795;28;20050;-71
2021/09/23 00:14:36;;;;;;;36.15;23.98;;;;;;;14.13;83.24;101888.53;10148493;28;20062;-71
2021/09/23 00:19:33;;;;;;;32.70;22.65;;;;;;;14.13;83.65;101891.25;10158258;28;20046;-71
2021/09/23 00:24:29;;;;;;;32.80;23.73;;;;;;;14.14;83.73;101884.66;10155007;28;20070;-70
2021/09/23 00:29:26;;;;;;;38.00;25.80;;;;;;;14.06;84.00;101884.28;10156019;28;20053;-70
2021/09/23 00:34:22;;;;;;;31.52;24.30;;;;;;;14.05;84.19;101882.66;10158806;28;20448;-71
2021/09/23 00:39:21;;;;;;;33.00;24.10;;;;;;;14.04;84.14;101875.53;10152817;28;20047;-70
2021/09/23 00:44:21;;;;;;;33.13;25.00;;;;;;;14.01;84.35;101859.66;10156788;28;20054;-70
2021/09/23 00:49:17;;;;;;;33.20;26.05;;;;;;;13.90;84.71;101841.78;10155549;28;20046;-70
2021/09/23 00:54:14;;;;;;;32.80;25.40;;;;;;;13.87;84.45;101836.91;10156631;28;20046;-70
2021/09/23 00:59:10;;;;;;;36.83;26.73;;;;;;;13.85;84.97;101833.66;10156960;28;20057;-71
2021/09/23 01:04:07;;;;;;;31.92;23.92;;;;;;;13.84;84.74;101826.56;10150767;28;20423;-71
2021/09/23 01:09:04;;;;;;;37.85;27.58;;;;;;;13.76;84.55;101828.13;10156456;28;20034;-71
2021/09/23 01:14:00;;;;;;;37.33;27.30;;;;;;;13.77;84.79;101812.44;10150906;28;20038;-71
2021/09/23 01:18:57;;;;;;;34.63;27.77;;;;;;;13.64;85.81;101809.41;10150770;28;20045;-70
2021/09/23 01:23:53;;;;;;;41.13;26.70;;;;;;;13.70;85.28;101801.06;10153117;28;20049;-70
2021/09/23 01:28:50;;;;;;;37.30;27.25;;;;;;;13.74;85.00;101799.28;10156446;28;20049;-69
2021/09/23 01:33:47;;;;;;;40.38;29.23;;;;;;;13.74;84.66;101782.81;10153562;28;20038;-70
2021/09/23 01:38:43;;;;;;;36.08;26.85;;;;;;;13.68;84.83;101780.19;10156510;28;20042;-70
2021/09/23 01:43:40;;;;;;;39.25;28.83;;;;;;;13.67;84.73;101756.59;10160348;28;20509;-70
2021/09/23 01:48:36;;;;;;;40.33;29.38;;;;;;;13.62;85.02;101759.47;10153694;28;20054;-71
2021/09/23 01:53:33;;;;;;;41.88;30.25;;;;;;;13.56;84.66;101740.69;10156192;28;20043;-71
2021/09/23 01:58:30;;;;;;;40.20;28.52;;;;;;;13.51;84.81;101725.13;10145175;28;20058;-71
2021/09/23 02:03:26;;;;;;;37.42;29.00;;;;;;;13.47;84.47;101708.44;10153736;28;20045;-71
2021/09/23 02:08:23;;;;;;;44.10;33.20;;;;;;;13.39;84.89;101691.91;10151854;28;20050;-70
2021/09/23 02:13:20;;;;;;;41.72;29.35;;;;;;;13.33;85.14;101684.94;10150261;28;20787;-71
2021/09/23 02:18:16;;;;;;;37.63;28.23;;;;;;;13.37;84.77;101674.94;10150183;28;20412;-71
2021/09/23 02:23:13;;;;;;;41.33;29.10;;;;;;;13.35;84.61;101677.19;10143813;28;20569;-71
2021/09/23 02:28:10;;;;;;;42.03;30.00;;;;;;;13.36;84.40;101656.81;10148112;28;20535;-70
2021/09/23 02:33:06;;;;;;;40.83;29.77;;;;;;;13.41;83.81;101670.44;10152815;28;20133;-71
2021/09/23 02:38:03;;;;;;;45.15;31.42;;;;;;;13.34;84.18;101670.06;10149408;28;20076;-71
2021/09/23 02:43:01;;;;;;;43.20;29.67;;;;;;;13.40;83.09;101663.31;10155038;28;20042;-70
2021/09/23 02:47:57;;;;;;;42.53;28.02;;;;;;;13.36;82.62;101662.31;10149669;28;20523;-70
2021/09/23 02:52:54;;;;;;;42.80;29.05;;;;;;;13.26;82.16;101642.19;10152984;28;20050;-71
2021/09/23 02:57:52;;;;;;;40.72;30.40;;;;;;;13.22;82.81;101641.19;10150895;28;20389;-73
2021/09/23 03:02:48;;;;;;;40.90;28.83;;;;;;;13.21;82.25;101645.09;10150192;28;20504;-70
2021/09/23 03:07:45;;;;;;;43.85;30.23;;;;;;;13.16;82.24;101626.00;10149703;28;20125;-70
2021/09/23 03:12:42;;;;;;;44.92;30.42;;;;;;;13.09;81.79;101606.41;10151789;28;20504;-70
2021/09/23 03:17:38;;;;;;;40.55;28.65;;;;;;;13.06;81.83;101598.78;10149974;28;20039;-69
2021/09/23 03:22:35;;;;;;;45.47;30.88;;;;;;;13.02;81.58;101593.13;10151087;28;20058;-70
2021/09/23 03:27:33;;;;;;;44.08;30.30;;;;;;;12.94;81.49;101595.78;10152019;28;20121;-71
2021/09/23 03:32:29;;;;;;;45.53;30.55;;;;;;;12.98;81.54;101602.28;10142704;28;20444;-69
2021/09/23 03:37:26;;;;;;;47.95;31.38;;;;;;;12.91;81.13;101585.44;10144810;28;20046;-70
2021/09/23 03:42:22;;;;;;;44.40;29.52;;;;;;;12.88;80.95;101594.28;10153059;28;20512;-70
2021/09/23 03:47:19;;;;;;;42.03;28.35;;;;;;;12.89;81.05;101580.25;10151969;28;20045;-69
2021/09/23 03:52:16;;;;;;;54.80;32.28;;;;;;;12.86;81.00;101583.63;10155598;28;20425;-69
2021/09/23 03:57:14;;;;;;;49.75;30.38;;;;;;;12.80;80.67;101560.19;10152995;28;20134;-70
2021/09/23 04:02:10;;;;;;;50.00;28.70;;;;;;;12.75;80.76;101555.63;10147900;28;20042;-69
2021/09/23 04:07:07;;;;;;;49.10;30.65;;;;;;;12.77;80.72;101542.41;10154485;28;20046;-70
2021/09/23 04:12:06;;;;;;;46.40;31.20;;;;;;;12.76;80.62;101546.25;10153512;28;20137;-70
2021/09/23 04:17:03;;;;;;;42.70;29.40;;;;;;;12.74;80.63;101533.97;10155526;28;20046;-71
2021/09/23 04:21:59;;;;;;;52.90;31.30;;;;;;;12.62;80.29;101529.06;10153198;28;20125;-70
2021/09/23 04:26:56;;;;;;;44.70;29.45;;;;;;;12.68;79.85;101522.34;10154461;28;20121;-70
2021/09/23 04:31:53;;;;;;;44.97;29.77;;;;;;;12.71;79.47;101516.22;10151965;28;20052;-71
2021/09/23 04:36:49;;;;;;;49.63;30.20;;;;;;;12.76;79.38;101529.78;10145276;28;20038;-71
2021/09/23 04:41:46;;;;;;;46.22;29.48;;;;;;;12.76;79.02;101513.34;10156349;28;20046;-70
2021/09/23 04:46:42;;;;;;;49.15;28.33;;;;;;;12.79;78.76;101500.94;10153610;28;20042;-71
2021/09/23 04:51:40;;;;;;;47.63;28.20;;;;;;;12.77;78.61;101476.56;10155814;28;20689;-70
2021/09/23 04:56:36;;;;;;;47.03;29.10;;;;;;;12.78;78.60;101475.41;10151806;28;20065;-70
2021/09/23 05:01:33;;;;;;;45.80;29.65;;;;;;;12.76;78.33;101469.41;10156426;28;20056;-70
2021/09/23 05:06:30;;;;;;;44.65;28.17;;;;;;;12.73;78.19;101437.13;10111780;28;1060711;-70
2021/09/23 05:11:28;;;;;;;48.58;29.73;;;;;;;12.69;78.61;101433.41;10155523;28;20416;-70
2021/09/23 05:16:25;;;;;;;43.72;27.90;;;;;;;12.68;78.26;101417.28;10155618;28;20423;-70
2021/09/23 05:21:21;;;;;;;47.60;29.75;;;;;;;12.74;78.03;101411.34;10152926;28;20046;-70
2021/09/23 05:26:18;;;;;;;42.03;26.35;;;;;;;12.81;77.58;101421.84;10156307;28;20089;-70
2021/09/23 05:31:15;;;;;;;46.40;28.98;;;;;;;12.81;77.85;101425.41;10156330;28;20046;-70
2021/09/23 05:36:12;;;;;;;46.40;28.30;;;;;;;12.90;77.60;101432.84;10150468;28;20065;-70
2021/09/23 05:41:08;;;;;;;44.80;27.27;;;;;;;12.94;77.49;101442.09;10156021;28;20121;-69
2021/09/23 05:46:05;;;;;;;49.65;28.58;;;;;;;12.89;77.59;101429.31;10149786;28;20042;-70
2021/09/23 05:51:02;;;;;;;42.95;25.48;;;;;;;12.93;77.70;101440.47;10153361;28;20455;-70
2021/09/23 05:55:58;;;;;;;42.42;26.05;;;;;;;12.96;77.92;101434.34;10152543;28;20042;-71
2021/09/23 06:00:55;;;;;;;40.78;25.80;;;;;;;12.96;78.13;101407.69;10156408;28;20039;-70
2021/09/23 06:06:11;;;;;;;46.63;27.88;;;;;;;12.96;78.34;101402.22;10147669;28;20041;-71
2021/09/23 06:11:10;;;;;;;45.75;26.17;;;;;;;13.03;77.92;101419.03;10152303;28;20054;-71
2021/09/23 06:16:07;;;;;;;41.38;24.85;;;;;;;13.11;77.86;101381.78;10146738;28;20568;-68
2021/09/23 06:21:07;;;;;;;43.10;26.00;;;;;;;13.16;77.38;101372.53;10148783;28;20115;-70
2021/09/23 06:26:04;;;;;;;43.50;27.80;;;;;;;13.15;77.67;101363.50;10153023;28;20046;-71
2021/09/23 06:31:02;;;;;;;38.97;24.23;;;;;;;13.19;77.77;101350.75;10153768;28;20097;-69
2021/09/23 06:35:58;;;;;;;37.22;23.70;;;;;;;13.28;77.81;101341.78;10145704;28;20049;-71
2021/09/23 06:41:01;;;;;;;41.13;24.27;;;;;;;13.24;77.32;101342.38;10152632;28;20389;-70
2021/09/23 06:45:58;;;;;;;42.92;25.42;;;;;;;13.26;77.58;101300.88;10143967;28;20058;-70
2021/09/23 06:50:55;;;;;;;36.17;23.25;;;;;;;13.29;77.77;101315.91;10146196;28;20073;-70
2021/09/23 06:55:51;;;;;;;44.38;25.17;;;;;;;13.30;77.89;101301.88;10145445;28;20050;-71
2021/09/23 07:00:48;;;;;;;37.53;23.63;;;;;;;13.31;78.13;101275.22;10153703;28;20044;-70
2021/09/23 07:05:45;;;;;;;38.42;24.42;;;;;;;13.32;78.52;101282.31;10145797;28;20497;-70
2021/09/23 07:10:41;;;;;;;40.15;24.42;;;;;;;13.40;78.28;101273.28;10150202;28;20129;-71
2021/09/23 07:15:39;;;;;;;41.13;24.70;;;;;;;13.31;79.15;101272.47;10152045;28;20047;-69
2021/09/23 07:20:36;;;;;;;39.15;24.83;;;;;;;13.34;79.63;101291.03;10149272;28;20622;-70
2021/09/23 07:25:33;;;;;;;37.50;24.40;;;;;;;13.44;79.05;101291.53;10150689;28;20050;-70
2021/09/23 07:30:30;;;;;;;35.90;23.20;;;;;;;13.45;79.64;101270.38;10148628;28;20070;-70
2021/09/23 07:35:27;;;;;;;43.80;24.17;;;;;;;13.58;79.71;101263.91;10151849;28;20049;-71
2021/09/23 07:40:23;;;;;;;38.00;25.42;;;;;;;13.54;79.76;101256.63;10149097;28;20070;-70
2021/09/23 07:45:20;;;;;;;40.88;23.25;;;;;;;13.64;80.01;101251.59;10140369;28;20146;-69
2021/09/23 07:50:17;;;;;;;39.08;23.55;;;;;;;13.70;79.50;101254.19;10147932;28;20420;-70
2021/09/23 07:55:14;;;;;;;37.53;24.25;;;;;;;13.73;80.04;101253.53;10146816;28;20046;-71
2021/09/23 08:00:11;;;;;;;40.75;24.73;;;;;;;13.77;80.29;101265.50;10145557;28;20432;-70
2021/09/23 08:05:08;;;;;;;39.20;24.58;;;;;;;13.82;80.49;101254.31;10150442;28;20527;-70
2021/09/23 08:10:05;;;;;;;37.45;24.73;;;;;;;14.02;79.80;101255.56;10151699;28;20078;-70
2021/09/23 08:15:03;;;;;;;38.47;24.63;;;;;;;14.00;79.67;101268.84;10150618;28;20056;-71
2021/09/23 08:19:59;;;;;;;38.80;23.63;;;;;;;14.05;79.98;101255.72;10151089;28;20073;-70
2021/09/23 08:24:56;;;;;;;35.03;24.13;;;;;;;14.06;79.81;101246.34;10144903;28;20089;-70
2021/09/23 08:29:52;;;;;;;38.25;24.73;;;;;;;14.11;80.14;101223.34;10146427;28;20038;-70
2021/09/23 08:34:51;;;;;;;39.03;24.05;;;;;;;14.12;80.19;101221.41;10156189;28;20061;-71
2021/09/23 08:39:48;;;;;;;36.83;24.70;;;;;;;14.12;80.56;101221.41;10149882;28;20053;-70
2021/09/23 08:44:44;;;;;;;48.15;25.23;;;;;;;14.08;81.11;101210.25;10153059;28;20078;-70
2021/09/23 08:49:41;;;;;;;49.22;25.20;;;;;;;14.07;81.64;101198.44;10150662;28;20044;-70
2021/09/23 08:54:37;;;;;;;36.00;22.77;;;;;;;14.13;81.95;101201.00;10157491;28;20531;-70
2021/09/23 08:59:34;;;;;;;35.97;23.55;;;;;;;14.17;81.73;101175.28;10149298;28;20396;-70
2021/09/23 09:04:34;;;;;;;43.83;24.58;;;;;;;14.22;81.95;101182.53;10155866;28;20105;-70
2021/09/23 09:09:32;;;;;;;38.33;23.38;;;;;;;14.20;82.79;101179.31;10149872;28;20054;-71
2021/09/23 09:14:47;;;;;;;38.38;25.20;;;;;;;14.21;83.15;101186.44;10150908;28;20053;-70
2021/09/23 09:19:55;;;;;;;37.75;23.75;;;;;;;14.29;82.86;101171.81;10153893;28;20100;-70
2021/09/23 09:24:57;;;;;;;40.55;24.23;;;;;;;14.42;83.00;101158.97;10152879;28;20048;-71
2021/09/23 09:29:56;;;;;;;37.07;22.70;;;;;;;14.52;82.88;101153.88;10157284;28;20046;-70
2021/09/23 09:34:56;;;;;;;34.00;19.60;;;;;;;14.53;82.95;101154.69;10152485;28;20580;-70
2021/09/23 09:39:56;;;;;;;37.45;21.88;;;;;;;14.60;82.59;101148.69;10150185;28;20042;-71
2021/09/23 09:44:57;;;;;;;35.67;21.10;;;;;;;14.66;82.81;101141.84;10147198;28;20078;-70
2021/09/23 09:49:54;;;;;;;32.83;20.50;;;;;;;14.75;82.03;101117.00;10155085;28;20042;-71
2021/09/23 09:55:08;;;;;;;25.13;17.48;;;;;;;14.86;81.51;101108.00;10148816;28;20057;-71
2021/09/23 10:00:05;;;;;;;30.20;16.23;;;;;;;15.02;81.30;101082.59;10149009;28;20038;-71
2021/09/23 10:05:02;;;;;;;27.30;16.40;;;;;;;15.14;80.07;101060.59;10156114;28;20049;-70
2021/09/23 10:09:59;;;;;;;29.30;14.07;;;;;;;15.22;79.03;101076.22;10156526;28;20142;-70
2021/09/23 10:14:56;;;;;;;20.77;13.85;;;;;;;15.28;78.23;101063.03;10142649;28;20080;-70
2021/09/23 10:19:53;;;;;;;22.60;13.20;;;;;;;15.34;78.38;101056.97;10148054;28;20049;-70
2021/09/23 10:24:50;;;;;;;21.27;12.32;;;;;;;15.44;78.10;101032.88;10151636;28;20053;-71
2021/09/23 10:29:47;;;;;;;21.23;11.93;;;;;;;15.44;77.73;101013.59;10149674;28;20038;-71
2021/09/23 10:34:43;;;;;;;19.02;12.65;;;;;;;15.46;77.63;100998.31;10152471;28;20570;-71
2021/09/23 10:39:41;;;;;;;20.40;12.45;;;;;;;15.46;77.66;101025.09;10153461;28;20451;-70
2021/09/23 10:44:39;;;;;;;19.88;13.05;;;;;;;15.45;77.68;101035.28;10149025;28;20060;-70
2021/09/23 10:49:36;;;;;;;22.10;12.68;;;;;;;15.55;77.80;101020.25;10152427;28;20050;-71
2021/09/23 10:54:33;;;;;;;21.02;12.65;;;;;;;15.51;77.80;101016.56;10151412;28;20157;-71
2021/09/23 10:59:32;;;;;;;21.83;13.18;;;;;;;15.49;78.01;101005.88;10147026;28;20586;-70
2021/09/23 11:04:31;;;;;;;19.42;12.20;;;;;;;15.44;78.32;101019.09;10146372;28;20053;-70
2021/09/23 11:09:28;;;;;;;24.17;12.82;;;;;;;15.41;78.48;101009.56;10152900;28;20073;-71
2021/09/23 11:14:27;;;;;;;19.35;11.68;;;;;;;15.41;78.91;101011.50;10150536;28;20460;-71
2021/09/23 11:19:24;;;;;;;18.88;12.05;;;;;;;15.40;78.68;101004.41;10153071;28;20039;-70
2021/09/23 11:24:22;;;;;;;20.50;11.27;;;;;;;15.42;78.74;100999.34;10146118;28;20058;-70
2021/09/23 11:29:20;;;;;;;22.10;11.05;;;;;;;15.49;78.73;100985.81;10152152;28;20405;-70
2021/09/23 11:34:40;;;;;;;20.13;10.27;;;;;;;15.53;78.80;100992.25;10144064;28;20045;-71
2021/09/23 11:39:37;;;;;;;17.27;9.48;;;;;;;15.53;78.31;100975.72;10152293;28;20046;-70
2021/09/23 11:44:33;;;;;;;18.20;9.60;;;;;;;15.58;78.35;100969.97;10150823;28;20469;-71
2021/09/23 11:49:52;;;;;;;15.82;8.40;;;;;;;15.57;78.43;100965.56;10150978;28;20052;-70
2021/09/23 11:54:48;;;;;;;15.20;7.88;;;;;;;15.60;79.12;100973.19;10149464;28;20051;-71
2021/09/23 11:59:53;;;;;;;14.07;8.45;;;;;;;15.59;78.41;100946.75;10146404;28;20035;-70
2021/09/23 12:04:53;;;;;;;13.10;7.57;;;;;;;15.60;78.84;100942.84;10142330;28;20038;-71
2021/09/23 12:10:08;;;;;;;14.50;7.95;;;;;;;15.57;78.98;100933.34;10153398;28;20045;-71
2021/09/23 12:15:05;;;;;;;16.75;7.50;;;;;;;15.61;79.22;100927.13;10155613;28;20068;-70
2021/09/23 12:20:02;;;;;;;17.40;6.78;;;;;;;15.68;79.35;100928.13;10153558;28;20069;-71
2021/09/23 12:25:00;;;;;;;13.73;7.13;;;;;;;15.72;79.33;100929.06;10153419;28;20058;-70
2021/09/23 12:29:57;;;;;;;10.48;5.78;;;;;;;15.78;79.61;100900.13;10159787;28;20389;-71
2021/09/23 12:34:54;;;;;;;11.20;7.05;;;;;;;15.78;79.64;100894.63;10154461;28;20048;-71
2021/09/23 12:39:51;;;;;;;14.68;6.55;;;;;;;15.75;80.74;100903.56;10159456;28;20488;-71
2021/09/23 12:45:00;;;;;;;13.50;6.57;;;;;;;15.72;81.93;100887.72;10154161;28;20137;-71
2021/09/23 12:50:06;;;;;;;11.15;6.75;;;;;;;15.64;83.13;100905.19;10156528;28;20141;-72
2021/09/23 12:55:12;;;;;;;14.02;7.70;;;;;;;15.48;85.84;100896.00;10156745;28;20138;-69
2021/09/23 13:00:12;;;;;;;15.45;7.82;;;;;;;15.40;87.62;100900.50;10158301;28;20064;-71
2021/09/23 13:05:12;;;;;;;14.90;8.00;;;;;;;15.31;89.42;100900.63;10151470;28;20053;-71
2021/09/23 13:10:11;;;;;;;20.80;9.50;;;;;;;15.18;91.36;100910.06;10154914;28;20142;-70
2021/09/23 13:15:44;;;;;;;17.40;9.60;;;;;;;14.99;93.52;100905.09;10153823;28;20046;-70
2021/09/23 13:20:51;;;;;;;15.40;9.73;;;;;;;14.99;94.60;100904.28;10151676;28;20042;-70
2021/09/23 13:25:56;;;;;;;17.95;10.15;;;;;;;14.92;95.23;100907.59;10155358;28;20046;-71
2021/09/23 13:30:55;;;;;;;20.05;10.13;;;;;;;14.87;95.84;100922.41;10149996;28;20046;-71
2021/09/23 13:35:52;;;;;;;15.27;9.20;;;;;;;14.84;96.26;100901.06;10147466;28;20053;-70
2021/09/23 13:40:49;;;;;;;14.32;7.43;;;;;;;14.85;97.26;100897.19;10155802;28;20062;-70
2021/09/23 13:45:46;;;;;;;10.02;6.00;;;;;;;14.83;98.02;100893.97;10155072;28;20046;-70
2021/09/23 13:50:44;;;;;;;10.55;4.75;;;;;;;14.85;97.82;100880.66;10155865;28;20416;-69
2021/09/23 13:55:41;;;;;;;9.35;4.35;;;;;;;14.91;97.54;100872.97;10151188;28;20501;-71
2021/09/23 14:00:48;;;;;;;8.32;4.10;;;;;;;14.90;97.48;100861.16;10154751;28;20096;-71
2021/09/23 14:05:45;;;;;;;8.77;3.42;;;;;;;14.91;96.57;100839.94;10153819;28;20046;-70
2021/09/23 14:10:41;;;;;;;9.75;2.95;;;;;;;14.89;96.36;100817.47;10155761;28;20121;-70
2021/09/23 14:15:38;;;;;;;10.63;3.17;;;;;;;14.86;97.28;100821.69;10147921;28;20057;-70
2021/09/23 14:20:34;;;;;;;8.10;3.25;;;;;;;14.85;96.86;100831.13;10148715;28;20097;-71
2021/09/23 14:25:31;;;;;;;9.68;3.65;;;;;;;14.85;96.29;100828.38;10154464;28;20038;-70
2021/09/23 14:30:28;;;;;;;11.95;4.15;;;;;;;14.81;97.48;100802.66;10145890;28;20047;-70
2021/09/23 14:35:25;;;;;;;11.88;3.33;;;;;;;14.82;96.92;100798.75;10152425;28;20046;-71
2021/09/23 14:40:32;;;;;;;11.98;3.20;;;;;;;14.83;95.59;100781.13;10148276;28;20050;-70
2021/09/23 14:45:28;;;;;;;11.93;2.90;;;;;;;14.88;94.85;100780.06;10146369;28;20449;-71
2021/09/23 14:50:25;;;;;;;7.55;2.20;;;;;;;14.91;94.74;100774.66;10153978;28;20438;-71
2021/09/23 14:55:22;;;;;;;6.05;2.60;;;;;;;14.93;95.06;100782.59;10144100;28;20467;-71
2021/09/23 15:00:18;;;;;;;7.90;2.58;;;;;;;14.93;95.36;100782.59;10146558;28;20047;-71
2021/09/23 15:05:16;;;;;;;10.13;2.58;;;;;;;14.91;95.88;100769.16;10151621;28;20136;-70
2021/09/23 15:10:13;;;;;;;11.07;2.90;;;;;;;14.92;96.35;100759.78;10150890;28;20046;-70
2021/09/23 15:15:10;;;;;;;12.20;3.00;;;;;;;14.77;97.71;100760.47;10149272;28;20042;-70
2021/09/23 15:20:07;;;;;;;14.07;5.55;;;;;;;14.65;100.00;100788.00;10153104;28;20045;-71
2021/09/23 15:25:05;;;;;;;12.90;4.10;;;;;;;14.56;100.00;100801.06;10148776;28;20089;-71
2021/09/23 15:30:03;;;;;;;10.05;2.33;;;;;;;14.33;100.00;100820.69;10153098;28;20488;-71
2021/09/23 15:34:59;;;;;;;11.90;3.28;;;;;;;14.12;100.00;100829.00;10149769;28;20046;-69
2021/09/23 15:39:56;;;;;;;11.55;2.15;;;;;;;14.04;100.00;100797.72;10149629;28;20493;-70
2021/09/23 15:44:53;;;;;;;13.80;2.40;;;;;;;13.99;100.00;100784.16;10159143;28;20046;-69
2021/09/23 15:49:49;;;;;;;17.38;3.15;;;;;;;13.96;100.00;100768.38;10157847;28;20046;-69
2021/09/23 15:54:46;;;;;;;12.88;2.67;;;;;;;13.96;99.85;100789.56;10156358;28;20432;-69
2021/09/23 15:59:42;;;;;;;18.35;3.00;;;;;;;13.98;99.87;100782.56;10160168;28;20065;-71
2021/09/23 16:04:39;;;;;;;30.77;4.03;;;;;;;13.96;100.00;100784.84;10155070;28;20508;-71
2021/09/23 16:09:35;;;;;;;21.33;3.90;;;;;;;13.99;100.00;100789.66;10155137;28;20043;-71
2021/09/23 16:14:32;;;;;;;19.83;3.67;;;;;;;14.04;100.00;100797.72;10158487;28;20133;-72
2021/09/23 16:19:29;;;;;;;26.95;4.38;;;;;;;14.10;99.78;100795.56;10159121;28;20500;-70
2021/09/23 16:24:25;;;;;;;21.98;3.53;;;;;;;14.12;98.94;100800.72;10156056;28;20503;-71
2021/09/23 16:29:22;;;;;;;85.40;5.38;;;;;;;14.19;98.15;100799.00;10158830;28;20122;-70
2021/09/23 16:34:19;;;;;;;29.17;3.58;;;;;;;14.24;97.74;100795.25;10159264;28;20050;-70
2021/09/23 16:39:15;;;;;;;23.38;3.47;;;;;;;14.23;96.01;100793.66;10152404;28;20050;-71
2021/09/23 16:44:12;;;;;;;32.03;4.50;;;;;;;14.21;95.97;100801.44;10158739;28;20038;-70
2021/09/23 16:49:09;;;;;;;20.50;3.80;;;;;;;14.21;95.62;100823.44;10155161;28;20508;-70
2021/09/23 16:54:06;;;;;;;31.83;4.15;;;;;;;14.21;95.34;100826.19;10154297;28;20050;-71
2021/09/23 16:59:10;;;;;;;19.60;3.63;;;;;;;14.22;94.63;100841.53;10155917;28;20038;-70
2021/09/23 17:04:07;;;;;;;21.80;3.88;;;;;;;14.21;93.91;100817.94;10152529;28;20666;-70
2021/09/23 17:09:07;;;;;;;21.83;2.90;;;;;;;14.19;93.14;100820.22;10157905;28;20061;-70
2021/09/23 17:14:04;;;;;;;22.35;3.63;;;;;;;14.16;91.58;100794.19;10148184;28;20068;-70
2021/09/23 17:19:01;;;;;;;24.98;4.10;;;;;;;14.15;91.32;100819.28;10150363;28;20828;-70
2021/09/23 17:23:59;;;;;;;23.42;3.65;;;;;;;14.15;90.48;100816.53;10150087;28;20054;-70
2021/09/23 17:28:55;;;;;;;21.77;3.70;;;;;;;14.16;89.92;100813.44;10149646;28;20133;-70
2021/09/23 17:33:54;;;;;;;24.35;4.40;;;;;;;14.19;89.79;100825.72;10148032;28;20427;-69
2021/09/23 17:38:50;;;;;;;21.38;4.07;;;;;;;14.23;88.96;100815.66;10150835;28;20058;-71
2021/09/23 17:43:48;;;;;;;26.23;4.03;;;;;;;14.23;88.74;100821.16;10148100;28;20047;-70
2021/09/23 17:48:44;;;;;;;30.70;3.47;;;;;;;14.21;89.09;100845.44;10156198;28;20141;-71
2021/09/23 17:53:41;;;;;;;25.30;3.63;;;;;;;14.12;90.77;100870.25;10147017;28;20134;-70
2021/09/23 17:58:37;;;;;;;22.80;3.55;;;;;;;14.05;91.07;100862.56;10155591;28;20065;-70
2021/09/23 18:03:36;;;;;;;18.15;3.75;;;;;;;14.01;90.11;100856.13;10136957;28;20053;-70
2021/09/23 18:08:34;;;;;;;18.25;2.85;;;;;;;14.03;89.83;100862.06;10150942;28;20570;-71
2021/09/23 18:13:31;;;;;;;23.85;4.45;;;;;;;14.04;89.67;100880.19;10155545;28;20527;-70
2021/09/23 18:18:27;;;;;;;24.77;3.83;;;;;;;14.05;89.02;100890.03;10146515;28;20077;-71
2021/09/23 18:23:24;;;;;;;25.02;4.72;;;;;;;14.05;88.97;100895.53;10155949;28;20061;-71
2021/09/23 18:28:20;;;;;;;21.63;3.85;;;;;;;14.04;88.43;100921.44;10153506;28;20130;-70
2021/09/23 18:33:17;;;;;;;24.33;4.38;;;;;;;14.06;88.07;100904.59;10153645;28;20405;-69
2021/09/23 18:38:14;;;;;;;32.03;4.68;;;;;;;14.01;88.31;100916.59;10152818;28;20042;-70
2021/09/23 18:43:11;;;;;;;24.00;3.53;;;;;;;13.96;86.88;100930.53;10155055;28;20053;-71
2021/09/23 18:48:07;;;;;;;21.38;4.15;;;;;;;13.91;84.38;100917.00;10145197;28;20125;-71
2021/09/23 18:53:04;;;;;;;21.38;3.55;;;;;;;13.89;82.71;100927.53;10152136;28;20048;-71
2021/09/23 18:58:02;;;;;;;26.83;5.35;;;;;;;13.87;79.96;100935.31;10147469;28;20133;-70
2021/09/23 19:02:59;;;;;;;35.05;5.55;;;;;;;13.84;77.23;100952.47;10146683;28;20061;-70
2021/09/23 19:07:56;;;;;;;29.73;5.43;;;;;;;13.78;76.03;100959.28;10153343;28;20580;-70
2021/09/23 19:13:08;;;;;;;37.38;5.30;;;;;;;13.67;74.54;100970.69;10147680;28;20485;-71
2021/09/23 19:18:05;;;;;;;37.60;5.72;;;;;;;13.58;74.25;100972.69;10145479;28;20053;-70
2021/09/23 19:23:02;;;;;;;31.65;6.63;;;;;;;13.50;72.53;100975.47;10140289;28;20523;-71
2021/09/23 19:27:59;;;;;;;34.85;6.40;;;;;;;13.39;72.29;100991.50;10146619;28;20074;-71
2021/09/23 19:32:57;;;;;;;33.17;5.78;;;;;;;13.37;71.95;100993.78;10152964;28;20061;-71
2021/09/23 19:37:56;;;;;;;44.28;7.63;;;;;;;13.28;71.34;100982.03;10151518;28;20084;-71
2021/09/23 19:42:54;;;;;;;31.55;6.32;;;;;;;13.21;70.64;100980.56;10152759;28;20127;-71
2021/09/23 19:47:52;;;;;;;39.67;6.82;;;;;;;13.15;69.13;100987.38;10148076;28;20133;-71
2021/09/23 19:52:48;;;;;;;35.58;5.32;;;;;;;13.08;68.59;101000.00;10148581;28;20042;-71
2021/09/23 19:57:45;;;;;;;37.55;6.75;;;;;;;13.01;68.24;100992.25;10148663;28;20046;-71
2021/09/23 20:02:42;;;;;;;33.97;6.28;;;;;;;12.96;67.89;100990.50;10151103;28;20714;-70
2021/09/23 20:07:41;;;;;;;37.67;5.10;;;;;;;12.93;67.52;100995.84;10149321;28;20524;-71
2021/09/23 20:12:39;;;;;;;33.50;5.72;;;;;;;12.90;66.49;101012.97;10146649;28;20125;-71
2021/09/23 20:17:37;;;;;;;37.08;5.22;;;;;;;12.88;66.55;101004.25;10143512;28;20076;-71
2021/09/23 20:22:34;;;;;;;16.90;4.03;;;;;;;12.80;66.50;101003.94;10146245;28;20053;-71
2021/09/23 20:27:32;;;;;;;34.10;4.38;;;;;;;12.79;67.04;101021.53;10152880;28;20051;-71
2021/09/23 20:32:29;;;;;;;29.17;4.93;;;;;;;12.78;66.93;101021.84;10157122;28;20042;-71
2021/09/23 20:37:25;;;;;;;42.67;6.72;;;;;;;12.74;67.52;101021.72;10156159;28;20129;-71
2021/09/23 20:42:22;;;;;;;29.05;6.68;;;;;;;12.75;68.06;101037.03;10156387;28;20138;-72
2021/09/23 20:47:19;;;;;;;26.90;4.15;;;;;;;12.72;67.57;101034.16;10150697;28;20117;-71
2021/09/23 20:52:16;;;;;;;26.75;4.30;;;;;;;12.74;68.23;101029.94;10158978;28;20137;-70
2021/09/23 20:57:25;;;;;;;31.80;4.90;;;;;;;12.74;68.14;101032.69;10157459;28;20496;-71
2021/09/23 21:02:22;;;;;;;34.40;4.35;;;;;;;12.74;68.65;101048.31;10158355;28;20077;-71
2021/09/23 21:07:19;;;;;;;25.88;5.20;;;;;;;12.75;68.68;101038.97;10149140;28;20053;-71
2021/09/23 21:12:16;;;;;;;31.77;5.78;;;;;;;12.71;68.53;101049.78;10161807;28;20050;-71
2021/09/23 21:17:12;;;;;;;33.45;6.20;;;;;;;12.69;68.32;101040.25;10154798;28;20049;-71
2021/09/23 21:22:09;;;;;;;24.27;3.83;;;;;;;12.70;68.71;101053.66;10153878;28;20125;-71
2021/09/23 21:27:06;;;;;;;27.25;4.60;;;;;;;12.69;69.20;101051.25;10157059;28;20050;-71
2021/09/23 21:32:02;;;;;;;31.92;4.35;;;;;;;12.70;68.85;101042.69;10153701;28;20046;-70
2021/09/23 21:36:59;;;;;;;29.65;3.70;;;;;;;12.75;69.17;101050.75;10154417;28;20068;-70
2021/09/23 21:41:55;;;;;;;26.80;4.78;;;;;;;12.81;68.99;101071.41;10156105;28;20068;-70
2021/09/23 21:46:52;;;;;;;22.13;3.60;;;;;;;12.81;69.35;101071.41;10154966;28;20045;-71
2021/09/23 21:51:49;;;;;;;29.85;4.43;;;;;;;12.83;69.02;101080.13;10151097;28;20057;-71
2021/09/23 21:56:45;;;;;;;19.10;3.55;;;;;;;12.86;69.12;101084.16;10150799;28;20064;-71
2021/09/23 22:01:42;;;;;;;32.63;4.72;;;;;;;12.89;68.96;101078.03;10151800;28;20420;-71
2021/09/23 22:06:39;;;;;;;27.52;4.85;;;;;;;12.93;68.96;101072.69;10145585;28;20038;-71
2021/09/23 22:11:36;;;;;;;28.90;4.85;;;;;;;12.91;69.80;101070.28;10155691;28;20069;-70
2021/09/23 22:16:32;;;;;;;21.35;3.58;;;;;;;12.91;70.01;101083.19;10145602;28;20054;-70
2021/09/23 22:21:29;;;;;;;23.85;4.28;;;;;;;12.87;69.89;101079.47;10150855;28;20046;-71
2021/09/23 22:26:25;;;;;;;27.42;4.13;;;;;;;12.83;70.68;101068.31;10149484;28;20046;-70